createdAt,value
2022-12-17T00:01:50.688Z,2.45
2022-12-17T00:04:37.205Z,2.45
2022-12-17T00:07:22.443Z,2.47
2022-12-17T00:10:07.554Z,2.45
2022-12-17T00:12:52.558Z,2.42
2022-12-17T00:15:41.708Z,2.44
2022-12-17T00:18:26.744Z,2.41
2022-12-17T00:21:12.990Z,2.36
2022-12-17T00:23:58.175Z,2.38
2022-12-17T00:26:43.791Z,2.44
2022-12-17T00:29:29.646Z,2.43
2022-12-17T00:32:14.710Z,2.40
2022-12-17T00:34:59.842Z,2.34
2022-12-17T00:37:44.937Z,2.36
2022-12-17T00:40:30.440Z,2.36
2022-12-17T00:43:23.205Z,2.39
2022-12-17T00:46:08.958Z,2.40
2022-12-17T00:48:53.990Z,2.37
2022-12-17T00:51:42.262Z,2.33
2022-12-17T00:54:28.000Z,2.32
2022-12-17T00:57:13.543Z,2.33
2022-12-17T00:59:59.120Z,2.32
2022-12-17T01:02:44.738Z,2.34
2022-12-17T01:05:30.299Z,2.36
2022-12-17T01:08:15.872Z,2.39
2022-12-17T01:11:01.477Z,2.40
2022-12-17T01:13:46.554Z,2.38
2022-12-17T01:16:33.136Z,2.38
2022-12-17T01:19:18.901Z,2.33
2022-12-17T01:22:04.571Z,2.33
2022-12-17T01:24:49.746Z,2.33
2022-12-17T01:27:36.082Z,2.32
2022-12-17T01:30:21.225Z,2.32
2022-12-17T01:33:06.429Z,2.29
2022-12-17T01:35:51.672Z,2.28
2022-12-17T01:38:38.260Z,2.23
2022-12-17T01:41:24.366Z,2.22
2022-12-17T01:44:09.462Z,2.18
2022-12-17T01:46:56.131Z,2.14
2022-12-17T01:49:43.804Z,2.11
2022-12-17T01:52:30.149Z,2.09
2022-12-17T01:55:15.709Z,2.08
2022-12-17T01:58:06.523Z,2.04
2022-12-17T02:00:51.639Z,2.04
2022-12-17T02:03:37.616Z,2.06
2022-12-17T02:06:40.931Z,2.07
2022-12-17T02:09:30.903Z,2.10
2022-12-17T02:12:21.767Z,2.13
2022-12-17T02:15:13.021Z,2.11
2022-12-17T02:18:06.749Z,2.08
2022-12-17T02:20:57.453Z,2.09
2022-12-17T02:23:57.652Z,2.09
2022-12-17T02:26:48.919Z,2.13
2022-12-17T02:29:34.605Z,2.14
2022-12-17T02:32:20.724Z,2.21
2022-12-17T02:35:06.211Z,2.26
2022-12-17T02:37:51.847Z,2.28
2022-12-17T02:40:38.802Z,2.25
2022-12-17T02:43:24.866Z,2.23
2022-12-17T02:46:10.094Z,2.21
2022-12-17T02:48:55.542Z,2.23
2022-12-17T02:51:41.234Z,2.24
2022-12-17T02:54:26.876Z,2.27
2022-12-17T02:57:12.436Z,2.29
2022-12-17T02:59:58.078Z,2.32
2022-12-17T03:02:43.248Z,2.37
2022-12-17T03:05:44.614Z,2.38
2022-12-17T03:08:30.826Z,2.36
2022-12-17T03:11:16.044Z,2.33
2022-12-17T03:14:01.193Z,2.29
2022-12-17T03:16:46.427Z,2.24
2022-12-17T03:19:31.523Z,2.17
2022-12-17T03:22:16.590Z,2.14
2022-12-17T03:25:01.822Z,2.15
2022-12-17T03:27:49.277Z,2.17
2022-12-17T03:30:36.415Z,2.18
2022-12-17T03:33:22.467Z,2.20
2022-12-17T03:36:07.538Z,2.17
2022-12-17T03:38:52.594Z,2.14
2022-12-17T03:41:37.817Z,2.15
2022-12-17T03:44:22.934Z,2.15
2022-12-17T03:47:08.240Z,2.14
2022-12-17T03:49:53.222Z,2.12
2022-12-17T03:52:38.176Z,2.14
2022-12-17T03:55:23.945Z,2.13
2022-12-17T03:58:09.023Z,2.10
2022-12-17T04:00:54.260Z,2.13
2022-12-17T04:03:39.908Z,2.15
2022-12-17T04:06:25.568Z,2.13
2022-12-17T04:09:10.592Z,2.15
2022-12-17T04:11:56.226Z,2.20
2022-12-17T04:14:54.933Z,2.22
2022-12-17T04:17:46.241Z,2.23
2022-12-17T04:20:31.641Z,2.26
2022-12-17T04:23:17.038Z,2.28
2022-12-17T04:26:02.169Z,2.28
2022-12-17T04:28:47.345Z,2.28
2022-12-17T04:31:32.411Z,2.27
2022-12-17T04:34:17.624Z,2.27
2022-12-17T04:37:02.613Z,2.25
2022-12-17T04:39:47.736Z,2.24
2022-12-17T04:42:32.782Z,2.21
2022-12-17T04:45:17.983Z,2.19
2022-12-17T04:48:05.263Z,2.18
2022-12-17T04:50:50.270Z,2.18
2022-12-17T04:53:35.915Z,2.21
2022-12-17T04:56:21.636Z,2.27
2022-12-17T04:59:06.820Z,2.29
2022-12-17T05:01:52.094Z,2.32
2022-12-17T05:04:37.387Z,2.29
2022-12-17T05:07:22.498Z,2.31
2022-12-17T05:10:07.538Z,2.34
2022-12-17T05:12:52.666Z,2.35
2022-12-17T05:15:37.886Z,2.37
2022-12-17T05:18:23.897Z,2.37
2022-12-17T05:21:10.540Z,2.39
2022-12-17T05:23:55.541Z,2.40
2022-12-17T05:26:42.222Z,2.39
2022-12-17T05:29:27.281Z,2.38
2022-12-17T05:32:12.808Z,2.39
2022-12-17T05:34:58.421Z,2.40
2022-12-17T05:37:43.616Z,2.41
2022-12-17T05:40:29.288Z,2.42
2022-12-17T05:43:15.521Z,2.42
2022-12-17T05:46:01.109Z,2.44
2022-12-17T05:48:46.572Z,2.49
2022-12-17T05:51:35.730Z,2.53
2022-12-17T05:54:23.631Z,2.56
2022-12-17T05:57:09.156Z,2.58
2022-12-17T05:59:54.190Z,2.62
2022-12-17T06:02:39.416Z,2.64
2022-12-17T06:05:25.018Z,2.66
2022-12-17T06:08:10.118Z,2.68
2022-12-17T06:10:55.744Z,2.69
2022-12-17T06:13:40.920Z,2.72
2022-12-17T06:16:26.545Z,2.74
2022-12-17T06:19:11.863Z,2.74
2022-12-17T06:21:57.412Z,2.76
2022-12-17T06:24:45.959Z,2.76
2022-12-17T06:27:31.727Z,2.74
2022-12-17T06:30:18.888Z,2.73
2022-12-17T06:33:04.405Z,2.73
2022-12-17T06:36:03.250Z,2.74
2022-12-17T06:38:48.440Z,2.72
2022-12-17T06:41:33.508Z,2.74
2022-12-17T06:44:18.534Z,2.75
2022-12-17T06:47:03.740Z,2.76
2022-12-17T06:49:48.827Z,2.77
2022-12-17T06:52:34.057Z,2.81
2022-12-17T06:55:19.062Z,2.83
2022-12-17T06:58:14.409Z,2.87
2022-12-17T07:00:59.503Z,2.88
2022-12-17T07:03:44.901Z,2.87
2022-12-17T07:06:29.943Z,2.87
2022-12-17T07:09:15.054Z,2.87
2022-12-17T07:12:00.255Z,2.87
2022-12-17T07:14:45.485Z,2.89
2022-12-17T07:17:30.565Z,2.88
2022-12-17T07:20:15.783Z,2.88
2022-12-17T07:23:01.027Z,2.89
2022-12-17T07:25:46.621Z,2.92
2022-12-17T07:28:31.816Z,2.95
2022-12-17T07:31:17.026Z,2.97
2022-12-17T07:34:05.907Z,3.00
2022-12-17T07:36:50.853Z,3.03
2022-12-17T07:39:36.489Z,3.04
2022-12-17T07:42:21.604Z,3.03
2022-12-17T07:45:06.820Z,3.05
2022-12-17T07:47:51.781Z,3.05
2022-12-17T07:50:36.914Z,3.07
2022-12-17T07:53:23.000Z,3.10
2022-12-17T07:56:08.079Z,3.11
2022-12-17T07:58:54.683Z,3.12
2022-12-17T08:01:39.932Z,3.11
2022-12-17T08:04:25.409Z,3.14
2022-12-17T08:07:14.003Z,3.15
2022-12-17T08:09:59.334Z,3.14
2022-12-17T08:12:44.393Z,3.14
2022-12-17T08:15:29.608Z,3.17
2022-12-17T08:18:26.787Z,3.19
2022-12-17T08:21:12.835Z,3.23
2022-12-17T08:23:58.467Z,3.27
2022-12-17T08:26:47.811Z,3.30
2022-12-17T08:29:33.454Z,3.31
2022-12-17T08:32:23.002Z,3.33
2022-12-17T08:35:08.266Z,3.35
2022-12-17T08:37:59.459Z,3.36
2022-12-17T08:40:44.948Z,3.39
2022-12-17T08:43:30.069Z,3.42
2022-12-17T08:46:15.174Z,3.44
2022-12-17T08:49:00.310Z,3.48
2022-12-17T08:51:45.456Z,3.52
2022-12-17T08:54:31.081Z,3.57
2022-12-17T08:57:27.076Z,3.61
2022-12-17T09:00:16.084Z,3.65
2022-12-17T09:03:01.413Z,3.70
2022-12-17T09:05:46.845Z,3.74
2022-12-17T09:08:32.108Z,3.78
2022-12-17T09:11:20.393Z,3.83
2022-12-17T09:14:05.511Z,3.86
2022-12-17T09:16:52.156Z,3.90
2022-12-17T09:19:37.307Z,3.93
2022-12-17T09:22:22.305Z,3.99
2022-12-17T09:25:07.737Z,4.05
2022-12-17T09:27:53.294Z,4.10
2022-12-17T09:30:38.535Z,4.14
2022-12-17T09:33:24.129Z,4.18
2022-12-17T09:36:09.335Z,4.22
2022-12-17T09:38:55.011Z,4.25
2022-12-17T09:41:40.033Z,4.30
2022-12-17T09:44:30.085Z,4.35
2022-12-17T09:47:21.324Z,4.38
2022-12-17T09:50:06.962Z,4.40
2022-12-17T09:52:55.613Z,4.42
2022-12-17T09:55:43.830Z,4.44
2022-12-17T09:58:42.833Z,4.44
2022-12-17T10:01:39.605Z,4.46
2022-12-17T10:04:29.519Z,4.48
2022-12-17T10:07:14.586Z,4.53
2022-12-17T10:10:00.732Z,4.53
2022-12-17T10:12:46.534Z,4.57
2022-12-17T10:15:34.604Z,4.62
2022-12-17T10:18:27.825Z,4.63
2022-12-17T10:21:27.580Z,4.68
2022-12-17T10:24:23.196Z,4.76
2022-12-17T10:27:08.338Z,4.79
2022-12-17T10:29:53.778Z,4.82
2022-12-17T10:32:41.490Z,4.87
2022-12-17T10:35:36.139Z,4.92
2022-12-17T10:38:28.863Z,4.98
2022-12-17T10:41:14.538Z,5.03
2022-12-17T10:44:00.613Z,5.09
2022-12-17T10:46:50.493Z,5.13
2022-12-17T10:49:40.151Z,5.18
2022-12-17T10:52:34.782Z,5.21
2022-12-17T10:55:21.775Z,5.26
2022-12-17T10:58:11.355Z,5.29
2022-12-17T11:00:58.202Z,5.33
2022-12-17T11:03:55.655Z,5.38
2022-12-17T11:06:46.362Z,5.43
2022-12-17T11:09:55.081Z,5.48
2022-12-17T11:12:43.313Z,5.56
2022-12-17T11:15:37.044Z,5.59
2022-12-17T11:18:23.754Z,5.65
2022-12-17T11:21:20.926Z,5.71
2022-12-17T11:24:08.238Z,5.76
2022-12-17T11:26:55.214Z,5.82
2022-12-17T11:29:40.159Z,5.88
2022-12-17T11:32:31.543Z,5.96
2022-12-17T11:35:32.854Z,6.06
2022-12-17T11:38:17.922Z,6.12
2022-12-17T11:41:06.536Z,6.16
2022-12-17T11:44:10.599Z,6.23
2022-12-17T11:47:02.752Z,6.30
2022-12-17T11:49:47.796Z,6.36
2022-12-17T11:52:32.857Z,6.42
2022-12-17T11:55:23.506Z,6.46
2022-12-17T11:58:10.138Z,6.51
2022-12-17T12:01:01.834Z,6.57
2022-12-17T12:04:13.338Z,6.60
2022-12-17T12:07:10.831Z,6.63
2022-12-17T12:10:08.280Z,6.65
2022-12-17T12:13:03.615Z,6.66
2022-12-17T12:15:48.715Z,6.69
2022-12-17T12:18:39.338Z,6.72
2022-12-17T12:21:34.601Z,6.77
2022-12-17T12:24:22.855Z,6.80
2022-12-17T12:27:11.167Z,6.84
2022-12-17T12:30:21.904Z,6.87
2022-12-17T12:33:13.300Z,6.91
2022-12-17T12:35:59.477Z,6.93
2022-12-17T12:38:51.131Z,6.94
2022-12-17T12:41:39.248Z,6.97
2022-12-17T12:44:31.753Z,6.98
2022-12-17T12:47:24.948Z,6.99
2022-12-17T12:50:29.058Z,7.01
2022-12-17T12:53:15.731Z,7.03
2022-12-17T12:56:02.052Z,7.03
2022-12-17T12:58:48.595Z,7.05
2022-12-17T13:01:34.259Z,7.08
2022-12-17T13:04:21.269Z,7.11
2022-12-17T13:06:54.465Z,7.14
2022-12-17T13:09:33.847Z,7.17
2022-12-17T13:12:04.527Z,7.21
2022-12-17T13:14:36.720Z,7.21
2022-12-17T13:17:16.163Z,7.21
2022-12-17T13:19:43.274Z,7.20
2022-12-17T13:22:29.454Z,7.18
2022-12-17T13:25:16.374Z,7.17
2022-12-17T13:27:53.333Z,7.15
2022-12-17T13:30:21.678Z,7.16
2022-12-17T13:32:48.335Z,7.15
2022-12-17T13:35:30.722Z,7.14
2022-12-17T13:38:05.875Z,7.11
2022-12-17T13:40:38.672Z,7.08
2022-12-17T13:43:05.532Z,7.06
2022-12-17T13:45:37.286Z,7.07
2022-12-17T13:48:04.019Z,7.06
2022-12-17T13:50:35.469Z,7.03
2022-12-17T13:53:10.326Z,7.02
2022-12-17T13:55:38.271Z,7.02
2022-12-17T13:58:04.917Z,7.01
2022-12-17T14:00:32.747Z,7.01
2022-12-17T14:03:09.251Z,7.00
2022-12-17T14:05:38.384Z,6.99
2022-12-17T14:08:05.632Z,6.96
2022-12-17T14:10:32.494Z,6.94
2022-12-17T14:13:03.934Z,6.92
2022-12-17T14:15:32.095Z,6.92
2022-12-17T14:17:59.512Z,6.91
2022-12-17T14:20:29.585Z,6.86
2022-12-17T14:22:59.996Z,6.82
2022-12-17T14:25:29.963Z,6.80
2022-12-17T14:28:01.132Z,6.81
2022-12-17T14:30:42.876Z,6.81
2022-12-17T14:33:29.967Z,6.80
2022-12-17T14:35:57.515Z,6.79
2022-12-17T14:38:37.416Z,6.80
2022-12-17T14:41:33.304Z,6.78
2022-12-17T14:44:00.740Z,6.79
2022-12-17T14:46:28.657Z,6.82
2022-12-17T14:49:02.576Z,6.81
2022-12-17T14:51:32.226Z,6.79
2022-12-17T14:54:13.784Z,6.79
2022-12-17T14:56:41.231Z,6.76
2022-12-17T14:59:24.423Z,6.73
2022-12-17T15:01:55.960Z,6.70
2022-12-17T15:04:23.429Z,6.67
2022-12-17T15:06:51.009Z,6.68
2022-12-17T15:09:17.643Z,6.68
2022-12-17T15:11:44.247Z,6.67
2022-12-17T15:14:10.860Z,6.69
2022-12-17T15:16:37.673Z,6.66
2022-12-17T15:19:04.500Z,6.66
2022-12-17T15:21:31.906Z,6.65
2022-12-17T15:23:58.625Z,6.64
2022-12-17T15:26:25.544Z,6.63
2022-12-17T15:28:52.270Z,6.61
2022-12-17T15:31:24.452Z,6.59
2022-12-17T15:33:52.029Z,6.56
2022-12-17T15:36:18.647Z,6.53
2022-12-17T15:38:46.510Z,6.51
2022-12-17T15:41:31.702Z,6.49
2022-12-17T15:43:58.373Z,6.46
2022-12-17T15:46:25.294Z,6.45
2022-12-17T15:48:52.023Z,6.42
2022-12-17T15:51:21.250Z,6.39
2022-12-17T15:53:48.520Z,6.38
2022-12-17T15:56:19.119Z,6.34
2022-12-17T15:58:46.004Z,6.31
2022-12-17T16:01:13.342Z,6.32
2022-12-17T16:03:40.422Z,6.31
2022-12-17T16:06:07.579Z,6.30
2022-12-17T16:08:35.018Z,6.28
2022-12-17T16:11:06.188Z,6.28
2022-12-17T16:13:33.061Z,6.27
2022-12-17T16:16:03.815Z,6.27
2022-12-17T16:18:31.405Z,6.23
2022-12-17T16:21:03.144Z,6.23
2022-12-17T16:23:30.015Z,6.19
2022-12-17T16:25:58.300Z,6.14
2022-12-17T16:28:25.665Z,6.13
2022-12-17T16:31:00.281Z,6.12
2022-12-17T16:33:32.515Z,6.11
2022-12-17T16:36:02.552Z,6.10
2022-12-17T16:38:29.642Z,6.07
2022-12-17T16:40:57.419Z,6.05
2022-12-17T16:43:24.691Z,6.05
2022-12-17T16:45:53.274Z,6.04
2022-12-17T16:48:21.293Z,6.04
2022-12-17T16:50:49.401Z,6.04
2022-12-17T16:53:17.494Z,6.01
2022-12-17T16:55:45.401Z,5.99
2022-12-17T16:58:12.792Z,5.97
2022-12-17T17:00:39.838Z,5.97
2022-12-17T17:03:07.587Z,5.97
2022-12-17T17:05:36.290Z,5.99
2022-12-17T17:08:03.234Z,5.98
2022-12-17T17:10:30.312Z,5.99
2022-12-17T17:12:57.380Z,6.00
2022-12-17T17:15:24.369Z,6.00
2022-12-17T17:17:54.375Z,6.00
2022-12-17T17:20:23.522Z,5.97
2022-12-17T17:22:50.433Z,5.95
2022-12-17T17:25:17.365Z,5.93
2022-12-17T17:27:44.902Z,5.91
2022-12-17T17:30:12.159Z,5.90
2022-12-17T17:32:39.097Z,5.89
2022-12-17T17:35:06.416Z,5.87
2022-12-17T17:37:33.347Z,5.84
2022-12-17T17:40:00.284Z,5.80
2022-12-17T17:42:27.110Z,5.77
2022-12-17T17:44:54.000Z,5.75
2022-12-17T17:47:20.821Z,5.72
2022-12-17T17:49:47.696Z,5.69
2022-12-17T17:52:15.721Z,5.68
2022-12-17T17:54:42.788Z,5.69
2022-12-17T17:57:10.334Z,5.69
2022-12-17T17:59:39.814Z,5.68
2022-12-17T18:02:07.493Z,5.66
2022-12-17T18:04:34.540Z,5.65
2022-12-17T18:07:25.200Z,5.65
2022-12-17T18:09:48.300Z,5.65
2022-12-17T18:12:18.200Z,5.63
2022-12-17T18:15:12.056Z,5.59
2022-12-17T18:17:31.984Z,5.58
2022-12-17T18:19:58.872Z,5.56
2022-12-17T18:22:25.999Z,5.56
2022-12-17T18:24:52.820Z,5.56
2022-12-17T18:27:19.647Z,5.55
2022-12-17T18:29:46.529Z,5.53
2022-12-17T18:32:13.381Z,5.53
2022-12-17T18:34:40.663Z,5.52
2022-12-17T18:37:07.573Z,5.50
2022-12-17T18:39:34.635Z,5.49
2022-12-17T18:42:04.722Z,5.47
2022-12-17T18:44:32.534Z,5.44
2022-12-17T18:46:59.694Z,5.40
2022-12-17T18:49:26.958Z,5.38
2022-12-17T18:51:54.430Z,5.35
2022-12-17T18:54:23.101Z,5.34
2022-12-17T18:57:01.073Z,5.33
2022-12-17T18:59:29.548Z,5.34
2022-12-17T19:01:56.925Z,5.31
2022-12-17T19:04:24.309Z,5.28
2022-12-17T19:06:53.799Z,5.26
2022-12-17T19:09:23.432Z,5.24
2022-12-17T19:11:50.682Z,5.22
2022-12-17T19:14:18.229Z,5.20
2022-12-17T19:16:45.552Z,5.19
2022-12-17T19:19:13.746Z,5.15
2022-12-17T19:21:40.979Z,5.12
2022-12-17T19:24:09.032Z,5.11
2022-12-17T19:26:35.908Z,5.12
2022-12-17T19:29:02.789Z,5.11
2022-12-17T19:31:31.163Z,5.09
2022-12-17T19:33:58.955Z,5.10
2022-12-17T19:36:28.637Z,5.08
2022-12-17T19:38:56.788Z,5.07
2022-12-17T19:41:24.208Z,5.08
2022-12-17T19:43:54.235Z,5.07
2022-12-17T19:46:21.137Z,5.05
2022-12-17T19:48:49.120Z,5.02
2022-12-17T19:51:17.674Z,5.00
2022-12-17T19:53:45.168Z,4.95
2022-12-17T19:59:31.440Z,4.88
2022-12-17T20:01:58.621Z,4.86
2022-12-17T20:04:25.548Z,4.84
2022-12-17T20:06:52.420Z,4.85
2022-12-17T20:09:19.401Z,4.83
2022-12-17T20:11:46.249Z,4.82
2022-12-17T20:14:13.572Z,4.83
2022-12-17T20:16:41.878Z,4.82
2022-12-17T20:19:11.333Z,4.81
2022-12-17T20:21:38.906Z,4.77
2022-12-17T20:24:05.965Z,4.77
2022-12-17T20:26:33.006Z,4.78
2022-12-17T20:28:59.868Z,4.77
2022-12-17T20:31:27.497Z,4.77
2022-12-17T20:33:54.427Z,4.77
2022-12-17T20:36:21.798Z,4.74
2022-12-17T20:38:49.776Z,4.73
2022-12-17T20:41:18.509Z,4.69
2022-12-17T20:43:45.375Z,4.67
2022-12-17T20:46:12.436Z,4.66
2022-12-17T20:48:40.914Z,4.65
2022-12-17T20:51:10.300Z,4.63
2022-12-17T20:53:37.681Z,4.59
2022-12-17T20:56:07.917Z,4.58
2022-12-17T20:58:34.866Z,4.57
2022-12-17T21:01:03.805Z,4.57
2022-12-17T21:03:32.664Z,4.58
2022-12-17T21:06:11.191Z,4.57
2022-12-17T21:08:40.467Z,4.56
2022-12-17T21:11:10.645Z,4.58
2022-12-17T21:13:37.768Z,4.56
2022-12-17T21:16:06.470Z,4.55
2022-12-17T21:18:33.838Z,4.51
2022-12-17T21:21:02.586Z,4.50
2022-12-17T21:23:30.177Z,4.49
2022-12-17T21:25:58.224Z,4.46
2022-12-17T21:28:25.772Z,4.45
2022-12-17T21:30:52.672Z,4.43
2022-12-17T21:33:19.553Z,4.39
2022-12-17T21:35:46.409Z,4.38
2022-12-17T21:38:13.292Z,4.35
2022-12-17T21:40:40.309Z,4.33
2022-12-17T21:43:07.131Z,4.30
2022-12-17T21:45:35.667Z,4.28
2022-12-17T21:48:03.009Z,4.26
2022-12-17T21:50:31.083Z,4.24
2022-12-17T21:52:58.049Z,4.24
2022-12-17T21:55:25.220Z,4.23
2022-12-17T21:57:52.093Z,4.21
2022-12-17T22:00:19.227Z,4.19
2022-12-17T22:02:46.218Z,4.18
2022-12-17T22:05:17.712Z,4.19
2022-12-17T22:07:48.784Z,4.15
2022-12-17T22:10:38.279Z,4.12
2022-12-17T22:13:06.575Z,4.12
2022-12-17T22:15:39.069Z,4.10
2022-12-17T22:18:14.765Z,4.09
2022-12-17T22:20:41.613Z,4.06
2022-12-17T22:23:08.455Z,4.02
2022-12-17T22:25:36.828Z,4.00
2022-12-17T22:28:04.187Z,4.02
2022-12-17T22:30:34.262Z,4.03
2022-12-17T22:33:11.645Z,4.03
2022-12-17T22:36:55.489Z,4.01
2022-12-17T22:43:33.259Z,4.01
2022-12-17T22:44:34.012Z,4.01
2022-12-17T22:44:43.671Z,4.00
2022-12-17T22:47:01.612Z,3.99
2022-12-17T22:49:28.640Z,3.98
2022-12-17T22:51:55.534Z,3.95
2022-12-17T22:54:22.402Z,3.94
2022-12-17T22:57:27.997Z,3.92
2022-12-17T22:59:36.453Z,3.91
2022-12-17T23:02:03.480Z,3.90
2022-12-17T23:04:30.428Z,3.87
2022-12-17T23:06:57.324Z,3.85
2022-12-17T23:09:24.350Z,3.84
2022-12-17T23:11:51.230Z,3.83
2022-12-17T23:14:18.610Z,3.83
2022-12-17T23:16:45.729Z,3.82
2022-12-17T23:19:14.028Z,3.82
2022-12-17T23:21:40.930Z,3.84
2022-12-17T23:24:08.190Z,3.84
2022-12-17T23:26:36.100Z,3.83
2022-12-17T23:29:05.189Z,3.79
2022-12-17T23:31:33.612Z,3.78
2022-12-17T23:34:00.482Z,3.77
2022-12-17T23:36:27.622Z,3.77
2022-12-17T23:39:28.358Z,3.77
2022-12-17T23:41:55.455Z,3.80
2022-12-17T23:44:22.389Z,3.79
2022-12-17T23:46:49.368Z,3.77
2022-12-17T23:49:16.193Z,3.77
2022-12-17T23:51:43.361Z,3.77
2022-12-17T23:54:10.193Z,3.74
2022-12-17T23:56:37.220Z,3.73
2022-12-17T23:59:04.149Z,3.72
